Time;durP1;ratioP1;P1;durP2;ratioP2;P2;SDS_P1;SDS_P2;PMS_P1;PMS_P2;Temp;Humidity;BMP_temperature;BMP_pressure;BME280_temperature;BME280_humidity;BME280_pressure;Samples;Min_cycle;Max_cycle;Signal;HPM_P1;HPM_P2
2023/04/24 00:00:28;;;;;;;10.90;8.45;;;;;;;;;;5074030;28;20449;-66
2023/04/24 00:02:56;;;;;;;14.30;8.30;;;;;;;;;;5073756;28;20037;-66
2023/04/24 00:05:25;;;;;;;12.82;8.50;;;;;;;;;;5073849;28;20041;-66
2023/04/24 00:07:53;;;;;;;12.63;8.30;;;;;;;;;;5073886;28;20043;-65
2023/04/24 00:10:20;;;;;;;11.38;8.63;;;;;;;;;;5073838;28;20119;-66
2023/04/24 00:12:48;;;;;;;12.90;8.80;;;;;;;;;;5073828;28;20074;-66
2023/04/24 00:15:15;;;;;;;12.70;8.13;;;;;;;;;;5073643;28;20033;-66
2023/04/24 00:17:43;;;;;;;11.98;9.05;;;;;;;;;;5073710;28;20048;-65
2023/04/24 00:20:11;;;;;;;12.68;8.80;;;;;;;;;;5073646;28;20037;-66
2023/04/24 00:22:38;;;;;;;13.48;8.75;;;;;;;;;;5073577;28;20048;-65
2023/04/24 00:25:06;;;;;;;11.35;8.77;;;;;;;;;;5073645;28;20040;-66
2023/04/24 00:27:35;;;;;;;10.68;8.30;;;;;;;;;;5073519;28;20048;-66
2023/04/24 00:30:03;;;;;;;12.18;8.52;;;;;;;;;;5073463;28;20044;-65
2023/04/24 00:32:30;;;;;;;12.20;8.32;;;;;;;;;;5089047;28;20045;-66
2023/04/24 00:34:58;;;;;;;11.63;8.15;;;;;;;;;;5073322;28;20036;-65
2023/04/24 00:37:25;;;;;;;11.55;8.23;;;;;;;;;;5072134;28;20050;-66
2023/04/24 00:39:53;;;;;;;10.60;8.00;;;;;;;;;;5055140;28;20041;-65
2023/04/24 00:42:21;;;;;;;12.05;7.82;;;;;;;;;;5055321;28;20050;-66
2023/04/24 00:44:48;;;;;;;13.27;9.25;;;;;;;;;;5073305;28;20041;-65
2023/04/24 00:47:16;;;;;;;11.50;8.40;;;;;;;;;;5055320;28;20083;-66
2023/04/24 00:49:43;;;;;;;12.18;7.60;;;;;;;;;;5055056;28;20044;-66
2023/04/24 00:52:12;;;;;;;12.00;7.80;;;;;;;;;;5072974;28;20086;-66
2023/04/24 00:54:40;;;;;;;10.77;7.13;;;;;;;;;;5055477;28;20657;-66
2023/04/24 00:57:07;;;;;;;11.30;7.15;;;;;;;;;;5088521;28;20040;-66
2023/04/24 00:59:36;;;;;;;11.80;7.97;;;;;;;;;;5054731;28;20383;-66
2023/04/24 01:02:04;;;;;;;12.65;7.65;;;;;;;;;;5054599;28;20048;-66
2023/04/24 01:04:31;;;;;;;10.60;7.40;;;;;;;;;;5054889;28;20395;-66
2023/04/24 01:06:59;;;;;;;13.93;7.50;;;;;;;;;;5054599;28;20044;-66
2023/04/24 01:09:27;;;;;;;11.35;8.23;;;;;;;;;;5072877;28;20398;-66
2023/04/24 01:11:56;;;;;;;10.90;7.72;;;;;;;;;;5072749;28;20044;-66
2023/04/24 01:14:23;;;;;;;12.27;8.00;;;;;;;;;;5054818;28;20050;-65
2023/04/24 01:16:51;;;;;;;12.10;7.78;;;;;;;;;;5054806;28;20052;-65
2023/04/24 01:19:20;;;;;;;12.77;7.40;;;;;;;;;;5072742;28;20040;-65
2023/04/24 01:21:48;;;;;;;11.93;7.97;;;;;;;;;;5071645;28;20040;-66
2023/04/24 01:24:19;;;;;;;11.25;7.63;;;;;;;;;;5087932;28;20052;-66
2023/04/24 01:26:47;;;;;;;10.80;7.60;;;;;;;;;;5088091;28;20056;-66
2023/04/24 01:29:14;;;;;;;8.60;7.25;;;;;;;;;;5054476;28;20132;-65
2023/04/24 01:31:43;;;;;;;15.15;7.68;;;;;;;;;;5071105;28;20048;-66
2023/04/24 01:34:11;;;;;;;10.60;7.65;;;;;;;;;;5054512;28;20437;-66
2023/04/24 01:36:38;;;;;;;11.98;7.50;;;;;;;;;;5087861;28;20051;-66
2023/04/24 01:39:06;;;;;;;12.30;7.78;;;;;;;;;;5071049;28;20146;-66
2023/04/24 01:41:34;;;;;;;11.95;7.80;;;;;;;;;;5088037;28;20102;-65
2023/04/24 01:44:02;;;;;;;11.75;7.78;;;;;;;;;;5054235;28;20127;-66
2023/04/24 01:46:31;;;;;;;12.20;7.95;;;;;;;;;;5054129;28;20501;-66
2023/04/24 01:49:00;;;;;;;11.05;7.28;;;;;;;;;;5070985;28;20130;-66
2023/04/24 01:51:27;;;;;;;11.68;7.65;;;;;;;;;;5072581;28;20487;-66
2023/04/24 01:53:56;;;;;;;10.55;8.07;;;;;;;;;;5072246;28;20040;-66
2023/04/24 01:56:24;;;;;;;10.70;7.78;;;;;;;;;;5054317;28;20056;-66
2023/04/24 01:58:53;;;;;;;11.93;7.50;;;;;;;;;;5053914;28;20509;-65
2023/04/24 02:01:20;;;;;;;11.18;7.78;;;;;;;;;;5054204;28;20044;-66
2023/04/24 02:03:48;;;;;;;12.63;7.70;;;;;;;;;;5054190;28;20040;-66
2023/04/24 02:06:16;;;;;;;10.63;7.38;;;;;;;;;;5087589;28;20075;-66
2023/04/24 02:08:43;;;;;;;12.18;8.32;;;;;;;;;;5087555;28;20052;-65
2023/04/24 02:11:11;;;;;;;12.60;7.90;;;;;;;;;;5070899;28;20051;-65
2023/04/24 02:13:38;;;;;;;12.15;8.20;;;;;;;;;;5072670;28;20049;-65
2023/04/24 02:16:06;;;;;;;11.15;7.93;;;;;;;;;;5074678;28;20041;-65
2023/04/24 02:18:34;;;;;;;12.57;8.02;;;;;;;;;;5057792;28;20048;-66
2023/04/24 02:21:01;;;;;;;10.18;7.72;;;;;;;;;;5091431;28;20054;-66
2023/04/24 02:23:29;;;;;;;17.85;8.43;;;;;;;;;;5057830;28;20101;-65
2023/04/24 02:25:58;;;;;;;12.88;7.70;;;;;;;;;;5057911;28;20127;-65
2023/04/24 02:28:25;;;;;;;17.13;9.00;;;;;;;;;;5091336;28;20045;-64
2023/04/24 02:30:53;;;;;;;10.80;8.18;;;;;;;;;;5057822;28;20514;-65
2023/04/24 02:33:22;;;;;;;8.93;7.55;;;;;;;;;;5075668;28;20037;-65
2023/04/24 02:35:49;;;;;;;11.27;8.15;;;;;;;;;;5075448;28;20049;-65
2023/04/24 02:38:17;;;;;;;12.02;8.25;;;;;;;;;;5057404;28;20415;-65
2023/04/24 02:40:44;;;;;;;10.70;8.30;;;;;;;;;;5074171;28;20052;-66
2023/04/24 02:43:12;;;;;;;15.43;10.18;;;;;;;;;;5075515;28;20113;-65
2023/04/24 02:45:39;;;;;;;13.68;8.68;;;;;;;;;;5075368;28;20117;-65
2023/04/24 02:48:07;;;;;;;13.93;8.85;;;;;;;;;;5057592;28;20528;-65
2023/04/24 02:50:35;;;;;;;11.63;9.02;;;;;;;;;;5057347;28;20037;-65
2023/04/24 02:53:02;;;;;;;11.30;8.43;;;;;;;;;;5075391;28;20037;-65
2023/04/24 02:55:30;;;;;;;18.42;8.82;;;;;;;;;;5091074;28;20071;-65
2023/04/24 02:57:58;;;;;;;10.98;8.50;;;;;;;;;;5057191;28;20053;-65
2023/04/24 03:00:25;;;;;;;11.02;8.85;;;;;;;;;;5073918;28;20516;-65
2023/04/24 03:02:53;;;;;;;12.90;9.38;;;;;;;;;;5073705;28;20083;-65
2023/04/24 03:05:20;;;;;;;11.52;9.43;;;;;;;;;;5057179;28;20045;-65
2023/04/24 03:07:48;;;;;;;13.30;9.30;;;;;;;;;;5090551;28;20431;-65
2023/04/24 03:10:15;;;;;;;14.30;9.43;;;;;;;;;;5073680;28;20047;-65
2023/04/24 03:12:43;;;;;;;16.23;8.70;;;;;;;;;;5074917;28;20045;-65
2023/04/24 03:15:10;;;;;;;17.20;8.88;;;;;;;;;;5090512;28;20410;-65
2023/04/24 03:17:38;;;;;;;16.40;9.35;;;;;;;;;;5056797;28;20047;-65
2023/04/24 03:20:07;;;;;;;14.32;9.77;;;;;;;;;;5074774;28;20494;-65
2023/04/24 03:22:36;;;;;;;10.10;8.27;;;;;;;;;;5090441;28;20045;-64
2023/04/24 03:25:08;;;;;;;12.75;8.90;;;;;;;;;;5056552;28;20490;-64
2023/04/24 03:27:37;;;;;;;13.50;8.95;;;;;;;;;;5056485;28;20049;-64
2023/04/24 03:30:34;;;;;;;15.63;8.63;;;;;;;;;;5056923;28;20048;-64
2023/04/24 03:33:02;;;;;;;15.00;8.68;;;;;;;;;;5073300;28;20106;-64
2023/04/24 03:35:34;;;;;;;12.15;9.02;;;;;;;;;;5074527;28;20044;-65
2023/04/24 03:38:04;;;;;;;12.02;8.30;;;;;;;;;;5073206;28;20490;-65
2023/04/24 03:40:55;;;;;;;18.63;7.78;;;;;;;;;;5066123;28;20067;-65
2023/04/24 03:43:36;;;;;;;17.23;8.48;;;;;;;;;;5056482;28;20067;-65
2023/04/24 03:46:04;;;;;;;15.77;8.57;;;;;;;;;;5072624;28;20044;-65
2023/04/24 03:48:36;;;;;;;11.63;8.40;;;;;;;;;;5056238;28;20090;-65
2023/04/24 03:51:06;;;;;;;13.35;8.40;;;;;;;;;;5080814;28;20042;-66
2023/04/24 03:53:36;;;;;;;15.20;10.10;;;;;;;;;;5093230;28;20052;-65
2023/04/24 03:56:03;;;;;;;13.52;8.00;;;;;;;;;;5076324;28;20040;-65
2023/04/24 03:58:32;;;;;;;10.88;8.23;;;;;;;;;;5059872;28;20044;-66
2023/04/24 04:01:00;;;;;;;12.43;8.98;;;;;;;;;;5076263;28;20044;-66
2023/04/24 04:03:43;;;;;;;13.65;7.82;;;;;;;;;;5076143;28;20128;-66
2023/04/24 04:06:12;;;;;;;12.38;8.48;;;;;;;;;;5075885;28;20040;-66
2023/04/24 04:08:41;;;;;;;16.17;8.75;;;;;;;;;;5092703;28;20075;-66
2023/04/24 04:11:09;;;;;;;16.02;8.35;;;;;;;;;;5075867;28;20067;-66
2023/04/24 04:13:36;;;;;;;17.02;8.68;;;;;;;;;;5092530;28;20448;-66
2023/04/24 04:16:04;;;;;;;10.93;7.57;;;;;;;;;;5092630;28;20036;-66
2023/04/24 04:18:32;;;;;;;10.38;7.80;;;;;;;;;;5093686;28;20044;-67
2023/04/24 04:21:01;;;;;;;13.10;8.00;;;;;;;;;;5075711;28;20041;-67
2023/04/24 04:23:29;;;;;;;16.55;8.10;;;;;;;;;;5075268;28;20044;-67
2023/04/24 04:26:32;;;;;;;15.90;7.35;;;;;;;;;;5088559;28;20059;-68
2023/04/24 04:29:06;;;;;;;10.57;7.60;;;;;;;;;;5090179;28;20139;-67
2023/04/24 04:31:37;;;;;;;12.27;7.20;;;;;;;;;;5091387;28;20593;-66
2023/04/24 04:34:10;;;;;;;14.13;8.02;;;;;;;;;;5091844;28;20476;-66
2023/04/24 04:36:39;;;;;;;15.85;10.68;;;;;;;;;;5074369;28;20136;-66
2023/04/24 04:39:25;;;;;;;15.15;7.60;;;;;;;;;;5092471;28;20059;-66
2023/04/24 04:42:02;;;;;;;19.17;7.32;;;;;;;;;;5092075;28;20048;-66
2023/04/24 04:44:38;;;;;;;12.27;7.32;;;;;;;;;;5075458;28;20047;-66
2023/04/24 04:47:07;;;;;;;10.02;6.85;;;;;;;;;;5091120;28;20040;-66
2023/04/24 04:49:36;;;;;;;12.65;7.60;;;;;;;;;;5074601;28;20512;-66
2023/04/24 04:52:06;;;;;;;17.08;8.02;;;;;;;;;;5091271;28;20161;-66
2023/04/24 04:54:34;;;;;;;9.65;6.28;;;;;;;;;;5074740;28;20036;-66
2023/04/24 04:57:01;;;;;;;11.30;6.40;;;;;;;;;;5074880;28;20118;-66
2023/04/24 04:59:31;;;;;;;11.82;6.50;;;;;;;;;;5091844;28;20101;-66
2023/04/24 05:02:04;;;;;;;13.23;7.18;;;;;;;;;;5091747;28;20036;-66
2023/04/24 05:04:32;;;;;;;11.95;8.27;;;;;;;;;;5091923;28;20079;-66
2023/04/24 05:07:00;;;;;;;13.70;7.07;;;;;;;;;;5074917;28;20039;-66
2023/04/24 05:09:32;;;;;;;12.80;7.05;;;;;;;;;;5091741;28;20524;-66
2023/04/24 05:12:03;;;;;;;12.93;6.82;;;;;;;;;;5074957;28;20055;-66
2023/04/24 05:14:34;;;;;;;16.40;6.90;;;;;;;;;;5074891;28;20398;-66
2023/04/24 05:17:02;;;;;;;13.95;6.75;;;;;;;;;;5091701;28;20036;-66
2023/04/24 05:19:35;;;;;;;12.30;8.18;;;;;;;;;;5074800;28;20046;-66
2023/04/24 05:22:05;;;;;;;16.95;10.13;;;;;;;;;;5091633;28;20036;-67
2023/04/24 05:24:34;;;;;;;14.13;6.78;;;;;;;;;;5091658;28;20051;-66
2023/04/24 05:27:20;;;;;;;17.88;7.82;;;;;;;;;;5091408;28;20413;-66
2023/04/24 05:29:49;;;;;;;12.88;7.53;;;;;;;;;;5091437;28;20559;-66
2023/04/24 05:32:16;;;;;;;15.60;7.80;;;;;;;;;;5074427;28;20044;-66
2023/04/24 05:34:44;;;;;;;12.73;6.20;;;;;;;;;;5091292;28;20456;-66
2023/04/24 05:37:12;;;;;;;11.13;5.78;;;;;;;;;;5091375;28;20032;-66
2023/04/24 05:39:41;;;;;;;9.23;6.55;;;;;;;;;;5074601;28;20040;-67
2023/04/24 05:42:09;;;;;;;6.15;4.65;;;;;;;;;;5074422;28;20063;-66
2023/04/24 05:44:37;;;;;;;7.30;4.90;;;;;;;;;;5092737;28;20040;-67
2023/04/24 05:47:04;;;;;;;10.65;4.75;;;;;;;;;;5091305;28;20044;-67
2023/04/24 05:49:32;;;;;;;9.52;5.20;;;;;;;;;;5078403;28;20088;-66
2023/04/24 05:52:00;;;;;;;12.88;5.32;;;;;;;;;;5095311;28;20464;-66
2023/04/24 05:54:27;;;;;;;12.32;5.50;;;;;;;;;;5095535;28;20048;-66
2023/04/24 05:56:56;;;;;;;7.80;5.43;;;;;;;;;;5095424;28;20062;-66
2023/04/24 05:59:41;;;;;;;10.10;4.57;;;;;;;;;;5078366;28;20557;-67
2023/04/24 06:02:10;;;;;;;6.97;5.43;;;;;;;;;;5095268;28;20097;-67
2023/04/24 06:04:37;;;;;;;8.70;5.03;;;;;;;;;;5078357;28;20094;-65
2023/04/24 06:07:06;;;;;;;6.63;4.68;;;;;;;;;;5061889;28;20559;-66
2023/04/24 06:09:34;;;;;;;8.57;4.60;;;;;;;;;;5095468;28;20036;-66
2023/04/24 06:12:02;;;;;;;7.07;5.40;;;;;;;;;;5078288;28;20044;-66
2023/04/24 06:14:44;;;;;;;8.52;5.63;;;;;;;;;;5095161;28;20119;-66
2023/04/24 06:17:19;;;;;;;7.95;5.28;;;;;;;;;;5095064;28;20086;-65
2023/04/24 06:19:47;;;;;;;5.97;4.57;;;;;;;;;;5095218;28;20551;-65
2023/04/24 06:22:15;;;;;;;10.02;4.85;;;;;;;;;;5094852;28;20078;-66
2023/04/24 06:24:43;;;;;;;6.88;4.82;;;;;;;;;;5095219;28;20047;-66
2023/04/24 06:27:10;;;;;;;6.93;5.10;;;;;;;;;;5078134;28;20048;-66
2023/04/24 06:29:40;;;;;;;7.03;4.80;;;;;;;;;;5094738;28;20071;-66
2023/04/24 06:32:08;;;;;;;8.57;5.03;;;;;;;;;;5094882;28;20105;-65
2023/04/24 06:34:36;;;;;;;9.88;5.57;;;;;;;;;;5061781;28;20048;-66
2023/04/24 06:37:04;;;;;;;7.38;4.30;;;;;;;;;;5094561;28;20469;-66
2023/04/24 06:39:31;;;;;;;7.50;5.07;;;;;;;;;;5095826;28;20497;-66
2023/04/24 06:41:59;;;;;;;9.30;4.75;;;;;;;;;;5077967;28;20040;-66
2023/04/24 06:44:26;;;;;;;8.18;5.32;;;;;;;;;;5095735;28;20044;-66
2023/04/24 06:46:53;;;;;;;6.70;4.78;;;;;;;;;;5095823;28;20036;-66
2023/04/24 06:49:21;;;;;;;6.00;4.10;;;;;;;;;;5060986;28;20055;-66
2023/04/24 06:51:48;;;;;;;6.90;4.10;;;;;;;;;;5095539;28;20078;-66
2023/04/24 06:54:16;;;;;;;5.90;4.13;;;;;;;;;;5095643;28;20093;-66
2023/04/24 06:56:45;;;;;;;8.80;5.28;;;;;;;;;;5077471;28;20385;-67
2023/04/24 06:59:12;;;;;;;8.23;4.53;;;;;;;;;;5094830;28;20052;-66
2023/04/24 07:01:40;;;;;;;5.90;4.38;;;;;;;;;;5095234;28;20434;-66
2023/04/24 07:04:07;;;;;;;7.68;4.53;;;;;;;;;;5077694;28;20059;-67
2023/04/24 07:06:35;;;;;;;6.82;4.20;;;;;;;;;;5095379;28;20046;-66
2023/04/24 07:09:03;;;;;;;10.13;5.40;;;;;;;;;;5077188;28;20135;-66
2023/04/24 07:11:31;;;;;;;10.65;4.88;;;;;;;;;;5095291;28;20454;-65
2023/04/24 07:13:58;;;;;;;9.52;5.10;;;;;;;;;;5095189;28;20071;-66
2023/04/24 07:16:26;;;;;;;7.40;4.18;;;;;;;;;;5095062;28;20051;-65
2023/04/24 07:18:54;;;;;;;6.70;4.75;;;;;;;;;;5094997;28;20067;-66
2023/04/24 07:21:22;;;;;;;7.45;4.30;;;;;;;;;;5095040;28;20379;-65
2023/04/24 07:23:49;;;;;;;7.32;4.40;;;;;;;;;;5095003;28;20048;-66
2023/04/24 07:26:17;;;;;;;9.70;4.60;;;;;;;;;;5095090;28;20044;-66
2023/04/24 07:28:45;;;;;;;7.40;4.60;;;;;;;;;;5094732;28;20060;-66
2023/04/24 07:31:12;;;;;;;9.63;5.25;;;;;;;;;;5094756;28;20093;-66
2023/04/24 07:33:40;;;;;;;8.68;5.00;;;;;;;;;;5094811;28;20063;-65
2023/04/24 07:36:07;;;;;;;8.55;4.85;;;;;;;;;;5094858;28;20436;-65
2023/04/24 07:38:35;;;;;;;7.45;4.53;;;;;;;;;;5094751;28;20105;-66
2023/04/24 07:41:02;;;;;;;9.65;4.72;;;;;;;;;;5094638;28;20044;-66
2023/04/24 07:43:30;;;;;;;7.82;4.45;;;;;;;;;;5094594;28;20054;-65
2023/04/24 07:45:57;;;;;;;10.25;4.50;;;;;;;;;;5094557;28;20044;-66
2023/04/24 07:48:26;;;;;;;8.52;4.50;;;;;;;;;;5094666;28;20059;-66
2023/04/24 07:50:54;;;;;;;8.43;4.55;;;;;;;;;;5076447;28;20044;-65
2023/04/24 07:53:22;;;;;;;6.13;4.38;;;;;;;;;;5094465;28;20054;-66
2023/04/24 07:55:49;;;;;;;8.60;4.30;;;;;;;;;;5094325;28;20038;-66
2023/04/24 07:58:17;;;;;;;7.30;4.70;;;;;;;;;;5094097;28;20516;-66
2023/04/24 08:00:45;;;;;;;11.18;7.10;;;;;;;;;;5094312;28;20043;-66
2023/04/24 08:03:12;;;;;;;11.50;6.18;;;;;;;;;;5094200;28;20036;-66
2023/04/24 08:05:42;;;;;;;9.95;4.97;;;;;;;;;;5094255;28;20071;-66
2023/04/24 08:08:10;;;;;;;8.55;5.25;;;;;;;;;;5076041;28;20409;-65
2023/04/24 08:10:37;;;;;;;9.25;5.30;;;;;;;;;;5092638;28;20401;-66
2023/04/24 08:13:05;;;;;;;10.27;4.93;;;;;;;;;;5093342;28;20486;-65
2023/04/24 08:15:32;;;;;;;8.70;4.82;;;;;;;;;;5076186;28;20109;-65
2023/04/24 08:18:00;;;;;;;9.25;5.00;;;;;;;;;;5076225;28;20436;-65
2023/04/24 08:20:28;;;;;;;7.65;4.97;;;;;;;;;;5075980;28;20489;-65
2023/04/24 08:22:56;;;;;;;10.95;7.18;;;;;;;;;;5094014;28;20374;-66
2023/04/24 08:25:24;;;;;;;8.32;5.55;;;;;;;;;;5093683;28;20059;-66
2023/04/24 08:27:52;;;;;;;8.10;5.15;;;;;;;;;;5076094;28;20056;-66
2023/04/24 08:30:20;;;;;;;9.65;5.80;;;;;;;;;;5092345;28;20074;-65
2023/04/24 08:32:48;;;;;;;9.63;5.43;;;;;;;;;;5093556;28;20036;-65
2023/04/24 08:35:15;;;;;;;9.95;5.35;;;;;;;;;;5093611;28;20461;-65
2023/04/24 08:37:43;;;;;;;9.63;6.05;;;;;;;;;;5093632;28;20044;-65
2023/04/24 08:40:14;;;;;;;12.40;5.90;;;;;;;;;;5093386;28;20094;-66
2023/04/24 08:42:43;;;;;;;8.90;5.20;;;;;;;;;;5093585;28;20122;-67
2023/04/24 08:45:12;;;;;;;9.02;5.28;;;;;;;;;;5075589;28;20448;-66
2023/04/24 08:47:41;;;;;;;6.82;4.32;;;;;;;;;;5093423;28;20062;-66
2023/04/24 08:50:09;;;;;;;8.27;4.47;;;;;;;;;;5093529;28;20040;-66
2023/04/24 08:52:37;;;;;;;9.90;4.47;;;;;;;;;;5093347;28;20093;-66
2023/04/24 08:55:04;;;;;;;10.00;5.93;;;;;;;;;;5092136;28;20043;-66
2023/04/24 08:57:33;;;;;;;8.23;5.03;;;;;;;;;;5093385;28;20043;-66
2023/04/24 09:00:01;;;;;;;8.85;4.93;;;;;;;;;;5093327;28;20481;-66
2023/04/24 09:02:29;;;;;;;7.43;5.00;;;;;;;;;;5093092;28;20482;-66
2023/04/24 09:04:58;;;;;;;21.05;5.40;;;;;;;;;;5093176;28;20439;-66
2023/04/24 09:07:25;;;;;;;9.30;4.90;;;;;;;;;;5093355;28;20036;-66
2023/04/24 09:09:53;;;;;;;7.30;4.47;;;;;;;;;;5093171;28;20039;-66
2023/04/24 09:12:21;;;;;;;13.25;4.82;;;;;;;;;;5092890;28;20048;-66
2023/04/24 09:14:48;;;;;;;10.45;4.50;;;;;;;;;;5092969;28;20074;-66
2023/04/24 09:17:16;;;;;;;11.80;4.85;;;;;;;;;;5093309;28;20149;-66
2023/04/24 09:19:43;;;;;;;6.40;4.43;;;;;;;;;;5092793;28;20044;-66
2023/04/24 09:22:11;;;;;;;8.05;4.30;;;;;;;;;;5092592;28;20064;-66
2023/04/24 09:24:39;;;;;;;8.45;4.63;;;;;;;;;;5092974;28;20078;-66
2023/04/24 09:27:07;;;;;;;11.77;6.13;;;;;;;;;;5074895;28;20549;-66
2023/04/24 09:29:37;;;;;;;9.10;4.35;;;;;;;;;;5092869;28;20048;-66
2023/04/24 09:32:21;;;;;;;9.48;4.85;;;;;;;;;;5092911;28;20093;-66
2023/04/24 09:34:50;;;;;;;7.72;4.68;;;;;;;;;;5092729;28;20082;-66
2023/04/24 09:37:28;;;;;;;11.85;4.60;;;;;;;;;;5092889;28;20489;-66
2023/04/24 09:40:08;;;;;;;10.00;4.60;;;;;;;;;;5092653;28;20577;-66
2023/04/24 09:42:36;;;;;;;6.82;4.45;;;;;;;;;;5092776;28;20478;-65
2023/04/24 09:45:04;;;;;;;8.77;4.10;;;;;;;;;;5074875;28;20559;-66
2023/04/24 09:47:42;;;;;;;9.57;4.80;;;;;;;;;;5092609;28;20097;-66
2023/04/24 09:50:17;;;;;;;8.60;4.55;;;;;;;;;;5074793;28;20501;-66
2023/04/24 09:52:47;;;;;;;6.55;4.65;;;;;;;;;;5092486;28;20110;-66
2023/04/24 09:55:21;;;;;;;8.80;4.60;;;;;;;;;;5092415;28;20048;-66
2023/04/24 09:57:52;;;;;;;9.68;4.20;;;;;;;;;;5074407;28;20056;-66
2023/04/24 10:00:22;;;;;;;9.85;4.95;;;;;;;;;;5092317;28;20494;-66
2023/04/24 10:02:51;;;;;;;7.45;4.10;;;;;;;;;;5092411;28;20059;-66
2023/04/24 10:05:19;;;;;;;5.75;4.22;;;;;;;;;;5092366;28;20036;-66
2023/04/24 10:07:46;;;;;;;6.68;4.25;;;;;;;;;;5092176;28;20241;-66
2023/04/24 10:10:16;;;;;;;10.55;4.90;;;;;;;;;;5092023;28;20040;-66
2023/04/24 10:12:44;;;;;;;7.00;4.45;;;;;;;;;;5092145;28;20040;-65
2023/04/24 10:15:13;;;;;;;9.52;4.35;;;;;;;;;;5092336;28;20119;-66
2023/04/24 10:17:41;;;;;;;6.67;4.67;;;;;;;;;;5092226;28;20036;-65
2023/04/24 10:20:08;;;;;;;5.85;4.22;;;;;;;;;;5092305;28;20044;-65
2023/04/24 10:22:36;;;;;;;6.78;4.97;;;;;;;;;;5092501;28;20036;-66
2023/04/24 10:25:05;;;;;;;9.65;4.78;;;;;;;;;;5092116;28;20111;-66
2023/04/24 10:27:33;;;;;;;7.07;5.07;;;;;;;;;;5092191;28;20040;-66
2023/04/24 10:30:01;;;;;;;8.50;5.10;;;;;;;;;;5074305;28;20036;-66
2023/04/24 10:32:28;;;;;;;7.38;5.22;;;;;;;;;;5092378;28;20093;-66
2023/04/24 10:34:56;;;;;;;7.65;4.53;;;;;;;;;;5093045;28;20036;-65
2023/04/24 10:37:26;;;;;;;7.53;4.75;;;;;;;;;;5096015;28;20036;-66
2023/04/24 10:39:54;;;;;;;6.03;4.53;;;;;;;;;;5096092;28;20438;-65
2023/04/24 10:42:22;;;;;;;7.72;4.50;;;;;;;;;;5095589;28;20048;-65
2023/04/24 10:44:50;;;;;;;7.50;4.80;;;;;;;;;;5077595;28;20409;-66
2023/04/24 10:47:18;;;;;;;9.13;4.75;;;;;;;;;;5077850;28;20059;-66
2023/04/24 10:49:45;;;;;;;6.45;4.60;;;;;;;;;;5095709;28;20059;-65
2023/04/24 10:52:16;;;;;;;8.43;5.55;;;;;;;;;;5078063;28;20048;-66
2023/04/24 10:54:47;;;;;;;8.15;4.70;;;;;;;;;;5095702;28;20047;-66
2023/04/24 10:57:24;;;;;;;8.70;4.35;;;;;;;;;;5095520;28;20072;-66
2023/04/24 11:00:12;;;;;;;8.13;4.28;;;;;;;;;;5095554;28;20115;-64
2023/04/24 11:02:47;;;;;;;6.07;3.80;;;;;;;;;;5061409;28;20520;-66
2023/04/24 11:05:17;;;;;;;7.60;4.05;;;;;;;;;;5095532;28;20040;-66
2023/04/24 11:08:03;;;;;;;5.03;4.07;;;;;;;;;;5077304;28;20101;-66
2023/04/24 11:10:33;;;;;;;6.43;4.32;;;;;;;;;;5095345;28;20097;-66
2023/04/24 11:13:02;;;;;;;6.95;3.95;;;;;;;;;;5077026;28;20047;-66
2023/04/24 11:15:30;;;;;;;6.10;3.95;;;;;;;;;;5095200;28;20048;-64
2023/04/24 11:17:57;;;;;;;6.22;3.70;;;;;;;;;;5095073;28;20379;-64
2023/04/24 11:20:26;;;;;;;5.07;3.40;;;;;;;;;;5095198;28;20072;-65
2023/04/24 11:22:57;;;;;;;5.38;3.88;;;;;;;;;;5095233;28;20127;-65
2023/04/24 11:25:25;;;;;;;6.22;4.30;;;;;;;;;;5095169;28;20048;-65
2023/04/24 11:28:03;;;;;;;6.00;4.45;;;;;;;;;;5095031;28;20032;-65
2023/04/24 11:30:31;;;;;;;6.70;4.63;;;;;;;;;;5077118;28;20101;-65
2023/04/24 11:33:03;;;;;;;6.00;3.95;;;;;;;;;;5094941;28;20040;-65
2023/04/24 11:35:37;;;;;;;5.95;4.10;;;;;;;;;;5094870;28;20044;-65
2023/04/24 11:38:05;;;;;;;7.73;4.33;;;;;;;;;;5094850;28;20105;-65
2023/04/24 11:40:35;;;;;;;9.07;4.22;;;;;;;;;;5094904;28;20119;-66
2023/04/24 11:43:05;;;;;;;6.40;4.50;;;;;;;;;;5094772;28;20115;-66
2023/04/24 11:45:34;;;;;;;9.00;3.88;;;;;;;;;;5094680;28;20039;-66
2023/04/24 11:48:03;;;;;;;7.97;4.05;;;;;;;;;;5094956;28;20047;-66
2023/04/24 11:50:31;;;;;;;5.32;3.75;;;;;;;;;;5093902;28;20044;-66
2023/04/24 11:53:00;;;;;;;5.38;4.60;;;;;;;;;;5094009;28;20062;-65
2023/04/24 11:55:29;;;;;;;6.20;4.10;;;;;;;;;;5094047;28;20490;-65
2023/04/24 11:57:57;;;;;;;5.78;3.78;;;;;;;;;;5093907;28;20131;-65
2023/04/24 12:00:28;;;;;;;6.55;4.00;;;;;;;;;;5093967;28;20134;-65
2023/04/24 12:03:10;;;;;;;5.95;4.10;;;;;;;;;;5094190;28;20097;-65
2023/04/24 12:05:38;;;;;;;6.38;3.75;;;;;;;;;;5094178;28;20039;-67
2023/04/24 12:08:06;;;;;;;6.22;4.10;;;;;;;;;;5094172;28;20497;-65
2023/04/24 12:10:34;;;;;;;6.80;3.78;;;;;;;;;;5075678;28;20398;-65
2023/04/24 12:13:02;;;;;;;7.03;4.15;;;;;;;;;;5086176;28;20041;-65
2023/04/24 12:15:30;;;;;;;5.07;3.63;;;;;;;;;;5073603;28;20044;-66
2023/04/24 12:17:58;;;;;;;5.53;3.92;;;;;;;;;;5073660;28;20123;-65
2023/04/24 12:20:32;;;;;;;7.13;3.60;;;;;;;;;;5078335;28;20032;-66
2023/04/24 12:23:00;;;;;;;7.47;4.13;;;;;;;;;;5091435;28;20473;-66
2023/04/24 12:25:29;;;;;;;4.63;3.85;;;;;;;;;;5093643;28;20046;-65
2023/04/24 12:28:14;;;;;;;5.40;3.72;;;;;;;;;;5093690;28;20036;-66
2023/04/24 12:30:44;;;;;;;4.30;3.60;;;;;;;;;;5093459;28;20075;-66
2023/04/24 12:33:12;;;;;;;6.70;3.67;;;;;;;;;;5093747;28;20057;-66
2023/04/24 12:35:40;;;;;;;4.65;3.75;;;;;;;;;;5093625;28;20048;-66
2023/04/24 12:38:22;;;;;;;6.70;3.20;;;;;;;;;;5093741;28;20043;-66
2023/04/24 12:41:01;;;;;;;4.07;3.17;;;;;;;;;;5093603;28;20067;-66
2023/04/24 12:43:29;;;;;;;4.25;3.05;;;;;;;;;;5093330;28;20040;-66
2023/04/24 12:45:56;;;;;;;5.93;3.53;;;;;;;;;;5093488;28;20040;-66
2023/04/24 12:48:24;;;;;;;6.78;3.70;;;;;;;;;;5093353;28;20032;-66
2023/04/24 12:50:52;;;;;;;7.30;3.60;;;;;;;;;;5093553;28;20040;-66
2023/04/24 12:53:19;;;;;;;3.70;3.30;;;;;;;;;;5093411;28;20064;-66
2023/04/24 12:55:52;;;;;;;12.73;4.45;;;;;;;;;;5093417;28;20725;-66
2023/04/24 12:58:20;;;;;;;5.65;3.30;;;;;;;;;;5091325;28;20066;-66
2023/04/24 13:00:48;;;;;;;5.85;4.00;;;;;;;;;;5093143;28;20085;-66
2023/04/24 13:03:15;;;;;;;5.85;4.20;;;;;;;;;;5093064;28;20044;-66
2023/04/24 13:05:43;;;;;;;6.60;3.90;;;;;;;;;;5093381;28;20379;-66
2023/04/24 13:08:12;;;;;;;19.25;16.50;;;;;;;;;;5093108;28;20036;-66
2023/04/24 13:10:40;;;;;;;6.07;4.57;;;;;;;;;;5093016;28;20044;-66
2023/04/24 13:13:08;;;;;;;6.63;5.20;;;;;;;;;;5092960;28;20048;-66
2023/04/24 13:15:36;;;;;;;5.15;3.83;;;;;;;;;;5093024;28;20040;-66
2023/04/24 13:18:04;;;;;;;8.90;5.93;;;;;;;;;;5075057;28;20051;-66
2023/04/24 13:20:31;;;;;;;10.13;5.70;;;;;;;;;;5093034;28;20044;-66
2023/04/24 13:22:59;;;;;;;9.02;4.13;;;;;;;;;;5092960;28;20117;-67
2023/04/24 13:25:27;;;;;;;6.00;4.20;;;;;;;;;;5092755;28;20044;-66
2023/04/24 13:27:55;;;;;;;7.32;3.30;;;;;;;;;;5092762;28;20035;-66
2023/04/24 13:30:22;;;;;;;5.03;3.45;;;;;;;;;;5092707;28;20040;-66
2023/04/24 13:32:50;;;;;;;7.35;4.00;;;;;;;;;;5092687;28;20040;-66
2023/04/24 13:35:17;;;;;;;7.18;4.28;;;;;;;;;;5092936;28;20071;-66
2023/04/24 13:37:45;;;;;;;10.90;6.65;;;;;;;;;;5092683;28;20047;-66
2023/04/24 13:40:12;;;;;;;5.97;3.92;;;;;;;;;;5092176;28;20085;-65
2023/04/24 13:42:40;;;;;;;7.97;4.25;;;;;;;;;;5092659;28;20044;-65
2023/04/24 13:45:08;;;;;;;5.40;3.67;;;;;;;;;;5092226;28;20089;-65
2023/04/24 13:47:40;;;;;;;9.57;3.90;;;;;;;;;;5092586;28;20234;-65
2023/04/24 13:50:09;;;;;;;8.73;4.30;;;;;;;;;;5092521;28;20040;-65
2023/04/24 13:52:36;;;;;;;5.28;3.97;;;;;;;;;;5092425;28;20044;-65
2023/04/24 13:55:04;;;;;;;5.15;3.83;;;;;;;;;;5091090;28;20417;-65
2023/04/24 13:57:31;;;;;;;10.20;4.82;;;;;;;;;;5092151;28;20032;-65
2023/04/24 14:00:01;;;;;;;5.95;4.47;;;;;;;;;;5088133;28;20151;-65
2023/04/24 14:02:33;;;;;;;6.25;4.25;;;;;;;;;;5082313;28;20046;-65
2023/04/24 14:05:01;;;;;;;5.25;4.43;;;;;;;;;;5088370;28;20051;-65
2023/04/24 14:07:28;;;;;;;6.70;4.60;;;;;;;;;;5072560;28;20502;-64
2023/04/24 14:09:56;;;;;;;6.78;5.35;;;;;;;;;;5069351;28;20048;-65
2023/04/24 14:12:24;;;;;;;8.00;4.00;;;;;;;;;;5091494;28;20098;-65
2023/04/24 14:14:51;;;;;;;5.55;3.63;;;;;;;;;;5080469;28;20040;-65
2023/04/24 14:17:19;;;;;;;55.50;7.35;;;;;;;;;;5095802;28;20394;-65
2023/04/24 14:19:46;;;;;;;8.48;4.15;;;;;;;;;;5076655;28;20123;-65
2023/04/24 14:22:14;;;;;;;6.32;4.00;;;;;;;;;;5074467;28;20127;-66
2023/04/24 14:24:41;;;;;;;4.35;3.67;;;;;;;;;;5075104;28;20036;-67
2023/04/24 14:27:09;;;;;;;7.63;4.15;;;;;;;;;;5082720;28;20056;-66
2023/04/24 14:29:36;;;;;;;6.47;3.63;;;;;;;;;;5095740;28;20115;-66
2023/04/24 14:32:04;;;;;;;5.32;3.80;;;;;;;;;;5095577;28;20133;-66
2023/04/24 14:34:31;;;;;;;8.23;3.80;;;;;;;;;;5095381;28;20032;-66
2023/04/24 14:36:59;;;;;;;13.00;4.22;;;;;;;;;;5080997;28;20044;-66
2023/04/24 14:39:26;;;;;;;10.00;4.10;;;;;;;;;;5095513;28;20489;-66
2023/04/24 14:41:55;;;;;;;5.93;4.32;;;;;;;;;;5095338;28;20040;-66
2023/04/24 14:44:22;;;;;;;4.78;3.80;;;;;;;;;;5095560;28;20125;-66
2023/04/24 14:46:50;;;;;;;7.00;4.30;;;;;;;;;;5095016;28;20072;-66